createdAt,value
2022-10-16T00:02:13.607Z,2.30
2022-10-16T00:05:16.805Z,2.30
2022-10-16T00:08:22.730Z,2.28
2022-10-16T00:11:27.467Z,2.20
2022-10-16T00:14:32.372Z,2.15
2022-10-16T00:17:35.135Z,2.23
2022-10-16T00:20:38.271Z,2.30
2022-10-16T00:23:41.844Z,1.92
2022-10-16T00:26:44.781Z,2.33
2022-10-16T00:29:52.729Z,2.20
2022-10-16T00:32:55.661Z,2.07
2022-10-16T00:36:00.357Z,2.07
2022-10-16T00:39:03.426Z,2.20
2022-10-16T00:42:10.485Z,2.13
2022-10-16T00:45:15.092Z,1.85
2022-10-16T00:48:17.933Z,1.87
2022-10-16T00:51:23.761Z,1.77
2022-10-16T00:54:30.336Z,1.80
2022-10-16T00:57:33.057Z,1.90
2022-10-16T01:00:37.362Z,2.00
2022-10-16T01:03:40.346Z,2.30
2022-10-16T01:06:52.507Z,2.10
2022-10-16T01:10:07.365Z,1.80
2022-10-16T01:13:14.105Z,2.00
2022-10-16T01:16:26.452Z,2.00
2022-10-16T01:19:43.222Z,2.00
2022-10-16T01:22:58.153Z,2.10
2022-10-16T01:26:17.524Z,2.10
2022-10-16T01:29:27.412Z,1.92
2022-10-16T01:32:35.891Z,1.92
2022-10-16T01:35:41.365Z,1.97
2022-10-16T01:38:49.628Z,1.80
2022-10-16T01:42:00.395Z,1.65
2022-10-16T01:45:08.748Z,1.42
2022-10-16T01:48:13.906Z,1.58
2022-10-16T01:51:18.863Z,2.00
2022-10-16T01:54:22.692Z,1.60
2022-10-16T01:57:27.042Z,1.85
2022-10-16T02:00:32.541Z,1.77
2022-10-16T02:03:36.744Z,1.70
2022-10-16T02:06:39.461Z,1.67
2022-10-16T02:09:42.780Z,1.80
2022-10-16T02:12:51.672Z,2.00
2022-10-16T02:15:55.722Z,1.90
2022-10-16T02:18:58.446Z,1.70
2022-10-16T02:22:07.815Z,1.80
2022-10-16T02:25:14.233Z,1.53
2022-10-16T02:28:21.506Z,1.70
2022-10-16T02:31:30.005Z,1.60
2022-10-16T02:34:35.142Z,1.63
2022-10-16T02:37:40.315Z,1.67
2022-10-16T02:40:43.695Z,1.60
2022-10-16T02:43:46.436Z,1.85
2022-10-16T02:46:50.350Z,1.40
2022-10-16T02:49:53.118Z,1.67
2022-10-16T02:52:55.737Z,1.63
2022-10-16T02:55:58.496Z,1.70
2022-10-16T02:59:01.231Z,2.00
2022-10-16T03:02:05.190Z,1.75
2022-10-16T03:05:09.154Z,1.50
2022-10-16T03:08:11.732Z,1.50
2022-10-16T03:11:14.447Z,1.50
2022-10-16T03:14:17.213Z,1.60
2022-10-16T03:17:21.135Z,1.40
2022-10-16T03:20:23.713Z,1.60
2022-10-16T03:23:26.324Z,1.70
2022-10-16T03:26:28.972Z,1.45
2022-10-16T03:29:33.191Z,1.58
2022-10-16T03:32:37.097Z,1.55
2022-10-16T03:35:39.726Z,1.80
2022-10-16T03:38:42.277Z,1.63
2022-10-16T03:41:44.968Z,1.35
2022-10-16T03:44:47.675Z,1.42
2022-10-16T03:47:51.569Z,1.50
2022-10-16T03:50:54.389Z,1.57
2022-10-16T03:53:56.950Z,1.50
2022-10-16T03:56:59.620Z,1.60
2022-10-16T04:00:02.197Z,1.40
2022-10-16T04:03:06.144Z,1.40
2022-10-16T04:06:09.886Z,1.50
2022-10-16T04:09:12.517Z,1.50
2022-10-16T04:12:15.211Z,1.52
2022-10-16T04:15:18.209Z,1.67
2022-10-16T04:18:22.194Z,1.48
2022-10-16T04:21:25.119Z,1.67
2022-10-16T04:24:27.756Z,1.40
2022-10-16T04:27:32.205Z,1.40
2022-10-16T04:30:35.487Z,1.40
2022-10-16T04:33:39.371Z,1.60
2022-10-16T04:36:42.075Z,1.60
2022-10-16T04:39:45.814Z,1.53
2022-10-16T04:42:48.376Z,1.30
2022-10-16T04:45:52.082Z,1.67
2022-10-16T04:48:55.982Z,1.30
2022-10-16T04:51:58.600Z,1.70
2022-10-16T04:55:03.444Z,1.70
2022-10-16T04:58:06.396Z,1.55
2022-10-16T05:01:09.076Z,1.60
2022-10-16T05:04:13.233Z,1.58
2022-10-16T05:07:15.914Z,1.33
2022-10-16T05:10:19.033Z,1.70
2022-10-16T05:13:21.776Z,1.60
2022-10-16T05:16:24.567Z,1.50
2022-10-16T05:19:29.262Z,1.20
2022-10-16T05:22:32.294Z,1.70
2022-10-16T05:25:34.825Z,1.80
2022-10-16T05:28:37.568Z,1.38
2022-10-16T05:31:40.164Z,2.10
2022-10-16T05:34:44.202Z,1.70
2022-10-16T05:37:46.889Z,1.70
2022-10-16T05:40:53.411Z,1.60
2022-10-16T05:43:56.092Z,1.50
2022-10-16T05:46:58.674Z,1.40
2022-10-16T05:50:02.652Z,1.50
2022-10-16T05:53:05.588Z,1.87
2022-10-16T05:56:11.377Z,1.70
2022-10-16T05:59:14.090Z,1.60
2022-10-16T06:02:16.866Z,1.73
2022-10-16T06:05:20.745Z,1.45
2022-10-16T06:08:24.983Z,1.70
2022-10-16T06:11:29.405Z,1.73
2022-10-16T06:14:32.131Z,2.25
2022-10-16T06:17:34.864Z,1.77
2022-10-16T06:20:38.946Z,1.40
2022-10-16T06:23:41.765Z,1.87
2022-10-16T06:26:44.397Z,1.70
2022-10-16T06:29:47.377Z,1.92
2022-10-16T06:32:50.089Z,2.08
2022-10-16T06:35:54.007Z,1.55
2022-10-16T06:38:56.631Z,1.80
2022-10-16T06:45:07.480Z,1.88
2022-10-16T06:48:10.053Z,1.80
2022-10-16T06:51:15.394Z,2.00
2022-10-16T06:54:18.782Z,1.87
2022-10-16T06:57:21.386Z,2.00
2022-10-16T07:03:31.534Z,1.75
2022-10-16T07:06:36.117Z,1.60
2022-10-16T07:09:38.669Z,1.73
2022-10-16T07:12:41.395Z,1.70
2022-10-16T07:15:43.963Z,1.95
2022-10-16T07:18:47.525Z,1.65
2022-10-16T07:21:51.451Z,1.58
2022-10-16T07:24:53.985Z,2.20
2022-10-16T07:27:57.855Z,2.00
2022-10-16T07:31:03.147Z,2.10
2022-10-16T07:34:05.744Z,1.90
2022-10-16T07:37:09.827Z,1.73
2022-10-16T07:40:12.726Z,1.70
2022-10-16T07:43:16.940Z,1.63
2022-10-16T07:46:20.552Z,1.58
2022-10-16T07:49:23.140Z,1.50
2022-10-16T07:52:27.191Z,1.80
2022-10-16T07:55:29.745Z,1.83
2022-10-16T07:58:32.609Z,1.70
2022-10-16T08:01:35.394Z,1.77
2022-10-16T08:04:37.975Z,1.60
2022-10-16T08:07:42.120Z,1.85
2022-10-16T08:10:44.722Z,1.90
2022-10-16T08:13:47.442Z,2.17
2022-10-16T08:16:50.127Z,1.75
2022-10-16T08:19:52.686Z,2.00
2022-10-16T08:22:56.786Z,1.80
2022-10-16T08:26:05.609Z,1.80
2022-10-16T08:29:08.363Z,1.97
2022-10-16T08:32:11.005Z,1.60
2022-10-16T08:35:15.099Z,1.50
2022-10-16T08:38:19.115Z,1.48
2022-10-16T08:41:58.765Z,2.00
2022-10-16T08:45:17.552Z,1.60
2022-10-16T08:48:26.965Z,1.83
2022-10-16T08:51:33.215Z,2.05
2022-10-16T08:54:43.312Z,1.90
2022-10-16T08:57:46.117Z,1.80
2022-10-16T09:00:52.431Z,2.17
2022-10-16T09:04:26.966Z,1.73
2022-10-16T09:07:35.883Z,1.90
2022-10-16T09:10:54.452Z,1.83
2022-10-16T09:14:05.921Z,1.70
2022-10-16T09:17:22.004Z,1.70
2022-10-16T09:20:38.378Z,1.83
2022-10-16T09:23:40.999Z,1.60
2022-10-16T09:26:45.418Z,1.40
2022-10-16T09:29:48.141Z,1.60
2022-10-16T09:32:54.408Z,1.53
2022-10-16T09:36:00.272Z,1.30
2022-10-16T09:39:07.431Z,1.60
2022-10-16T09:42:12.747Z,1.60
2022-10-16T09:45:24.469Z,1.50
2022-10-16T09:48:32.942Z,1.60
2022-10-16T09:51:37.918Z,1.35
2022-10-16T09:54:51.642Z,1.40
2022-10-16T09:57:56.727Z,1.23
2022-10-16T10:00:59.858Z,1.50
2022-10-16T10:04:03.859Z,1.27
2022-10-16T10:07:06.770Z,1.40
2022-10-16T10:10:22.883Z,1.75
2022-10-16T10:13:28.192Z,1.38
2022-10-16T10:16:30.834Z,1.60
2022-10-16T10:19:41.122Z,1.80
2022-10-16T10:22:46.926Z,1.40
2022-10-16T10:25:57.535Z,1.30
2022-10-16T10:29:09.309Z,1.30
2022-10-16T10:32:25.712Z,1.37
2022-10-16T10:35:35.767Z,1.23
2022-10-16T10:38:47.667Z,1.20
2022-10-16T10:42:09.892Z,1.60
2022-10-16T10:45:28.523Z,1.23
2022-10-16T10:48:54.007Z,1.47
2022-10-16T10:52:08.608Z,1.27
2022-10-16T10:55:21.697Z,1.30
2022-10-16T10:58:50.853Z,1.67
2022-10-16T11:01:58.597Z,1.20
2022-10-16T11:05:21.353Z,1.70
2022-10-16T11:08:32.974Z,1.30
2022-10-16T11:11:40.198Z,1.13
2022-10-16T11:14:48.091Z,1.30
2022-10-16T11:17:57.027Z,1.10
2022-10-16T11:21:04.595Z,1.20
2022-10-16T11:24:18.133Z,1.40
2022-10-16T11:27:37.411Z,0.93
2022-10-16T11:30:45.584Z,1.50
2022-10-16T11:33:57.043Z,1.17
2022-10-16T11:37:07.148Z,1.23
2022-10-16T11:40:22.248Z,1.13
2022-10-16T11:43:30.896Z,1.05
2022-10-16T11:46:47.838Z,1.02
2022-10-16T11:50:06.870Z,1.10
2022-10-16T11:53:19.051Z,1.10
2022-10-16T11:56:23.277Z,0.87
2022-10-16T11:59:35.492Z,1.00
2022-10-16T12:02:50.817Z,0.90
2022-10-16T12:06:08.715Z,0.82
2022-10-16T12:09:21.899Z,1.00
2022-10-16T12:12:31.444Z,0.80
2022-10-16T12:19:13.949Z,0.77
2022-10-16T12:22:20.928Z,0.90
2022-10-16T12:25:26.769Z,0.90
2022-10-16T12:28:31.114Z,0.70
2022-10-16T12:31:54.493Z,0.60
2022-10-16T12:34:58.039Z,0.65
2022-10-16T12:38:19.331Z,0.70
2022-10-16T12:41:28.263Z,0.70
2022-10-16T12:44:34.994Z,0.70
2022-10-16T12:47:40.740Z,0.70
2022-10-16T12:50:43.401Z,0.80
2022-10-16T12:53:47.437Z,0.57
2022-10-16T12:57:05.599Z,0.70
2022-10-16T13:00:22.017Z,0.73
2022-10-16T13:03:55.519Z,0.50
2022-10-16T13:07:11.320Z,0.80
2022-10-16T13:10:27.590Z,0.80
2022-10-16T13:13:49.042Z,0.70
2022-10-16T13:17:04.847Z,0.80
2022-10-16T13:20:19.528Z,0.70
2022-10-16T13:23:28.412Z,0.90
2022-10-16T13:26:43.443Z,0.50
2022-10-16T13:29:46.660Z,0.70
2022-10-16T13:36:00.142Z,0.60
2022-10-16T13:39:11.636Z,0.60
2022-10-16T13:42:27.948Z,0.60
2022-10-16T13:45:31.044Z,0.60
2022-10-16T13:48:35.697Z,0.57
2022-10-16T13:51:38.371Z,0.50
2022-10-16T13:54:42.331Z,0.60
2022-10-16T13:57:46.906Z,0.40
2022-10-16T14:00:57.929Z,0.63
2022-10-16T14:04:06.625Z,0.40
2022-10-16T14:07:20.638Z,0.50
2022-10-16T14:10:27.458Z,0.70
2022-10-16T14:13:36.227Z,0.60
2022-10-16T14:16:43.132Z,0.70
2022-10-16T14:19:51.499Z,0.77
2022-10-16T14:23:03.017Z,0.73
2022-10-16T14:26:25.294Z,0.52
2022-10-16T14:29:32.528Z,0.70
2022-10-16T14:32:35.122Z,0.87
2022-10-16T14:35:40.889Z,0.70
2022-10-16T14:38:50.438Z,0.80
2022-10-16T14:41:54.592Z,0.70
2022-10-16T14:44:58.968Z,0.63
2022-10-16T14:48:04.666Z,0.80
2022-10-16T14:51:10.987Z,0.93
2022-10-16T14:54:15.136Z,1.00
2022-10-16T14:57:20.075Z,1.00
2022-10-16T15:00:26.223Z,0.70
2022-10-16T15:03:28.802Z,0.80
2022-10-16T15:06:31.541Z,0.70
2022-10-16T15:09:34.052Z,0.70
2022-10-16T15:12:36.856Z,0.50
2022-10-16T15:15:44.559Z,0.80
2022-10-16T15:18:47.114Z,0.87
2022-10-16T15:21:50.151Z,0.73
2022-10-16T15:24:52.705Z,0.90
2022-10-16T15:27:55.325Z,1.20
2022-10-16T15:30:59.451Z,0.90
2022-10-16T15:34:05.208Z,0.90
2022-10-16T15:37:08.002Z,0.70
2022-10-16T15:40:11.883Z,0.90
2022-10-16T15:43:14.605Z,0.80
2022-10-16T15:46:20.917Z,0.90
2022-10-16T15:49:23.506Z,1.00
2022-10-16T15:52:26.693Z,0.90
2022-10-16T15:55:29.765Z,0.70
2022-10-16T15:58:32.609Z,0.88
2022-10-16T16:01:37.273Z,0.90
2022-10-16T16:04:44.650Z,1.30
2022-10-16T16:07:47.713Z,0.93
2022-10-16T16:10:59.975Z,1.20
2022-10-16T16:14:02.742Z,1.17
2022-10-16T16:17:06.817Z,1.40
2022-10-16T16:20:10.797Z,1.73
2022-10-16T16:23:13.500Z,1.90
2022-10-16T16:26:24.825Z,2.20
2022-10-16T16:29:27.536Z,2.53
2022-10-16T16:32:31.672Z,3.10
2022-10-16T16:35:34.266Z,3.03
2022-10-16T16:38:37.206Z,3.10
2022-10-16T16:41:39.790Z,2.88
2022-10-16T16:44:42.483Z,2.00
2022-10-16T16:47:46.608Z,1.80
2022-10-16T16:50:49.182Z,1.77
2022-10-16T16:53:53.832Z,1.30
2022-10-16T16:56:56.671Z,1.40
2022-10-16T16:59:59.405Z,1.70
2022-10-16T17:03:03.569Z,1.45
2022-10-16T17:06:08.554Z,1.90
2022-10-16T17:09:14.164Z,1.77
2022-10-16T17:12:16.771Z,1.50
2022-10-16T17:15:19.636Z,1.50
2022-10-16T17:18:24.611Z,2.10
2022-10-16T17:21:28.070Z,1.90
2022-10-16T17:24:30.782Z,2.00
2022-10-16T17:27:34.348Z,1.90
2022-10-16T17:30:37.383Z,1.80
2022-10-16T17:33:41.800Z,1.90
2022-10-16T17:36:46.807Z,1.80
2022-10-16T17:39:51.889Z,1.80
2022-10-16T17:42:54.621Z,2.00
2022-10-16T17:45:57.362Z,1.90
2022-10-16T17:49:01.399Z,2.10
2022-10-16T17:52:04.068Z,2.20
2022-10-16T17:55:07.683Z,2.10
2022-10-16T17:58:10.458Z,2.28
2022-10-16T18:01:14.609Z,2.08
2022-10-16T18:04:19.004Z,2.20
2022-10-16T18:07:21.606Z,2.00
2022-10-16T18:10:24.288Z,1.88
2022-10-16T18:13:26.868Z,2.08
2022-10-16T18:16:31.278Z,2.20
2022-10-16T18:19:35.709Z,2.15
2022-10-16T18:22:38.798Z,1.87
2022-10-16T18:25:41.577Z,1.73
2022-10-16T18:28:44.753Z,2.30
2022-10-16T18:31:47.526Z,2.00
2022-10-16T18:34:52.121Z,2.13
2022-10-16T18:37:58.929Z,2.30
2022-10-16T18:41:01.780Z,2.60
2022-10-16T18:44:04.413Z,3.70
2022-10-16T18:47:07.161Z,10.52
2022-10-16T18:50:11.999Z,11.70
2022-10-16T18:53:14.976Z,10.60
2022-10-16T18:56:20.060Z,10.55
2022-10-16T18:59:23.083Z,6.13
2022-10-16T19:02:25.756Z,5.15
2022-10-16T19:05:30.010Z,3.80
2022-10-16T19:08:33.763Z,3.63
2022-10-16T19:11:41.313Z,3.78
2022-10-16T19:14:44.706Z,4.03
2022-10-16T19:17:47.465Z,4.03
2022-10-16T19:20:51.505Z,3.92
2022-10-16T19:23:54.785Z,3.90
2022-10-16T19:26:58.021Z,4.20
2022-10-16T19:30:00.631Z,4.82
2022-10-16T19:33:03.381Z,3.83
2022-10-16T19:36:11.986Z,3.70
2022-10-16T19:39:17.237Z,3.83
2022-10-16T19:42:20.160Z,3.85
2022-10-16T19:45:22.985Z,3.50
2022-10-16T19:48:25.741Z,2.83
2022-10-16T19:51:30.975Z,3.00
2022-10-16T19:54:35.698Z,3.00
2022-10-16T19:57:39.538Z,2.70
2022-10-16T20:00:42.301Z,2.55
2022-10-16T20:03:45.301Z,2.40
2022-10-16T20:06:49.427Z,2.60
2022-10-16T20:09:52.123Z,1.93
2022-10-16T20:12:54.816Z,2.08
2022-10-16T20:15:57.754Z,2.00
2022-10-16T20:19:01.186Z,2.10
2022-10-16T20:22:05.264Z,2.30
2022-10-16T20:25:10.133Z,1.87
2022-10-16T20:28:15.695Z,2.10
2022-10-16T20:31:22.541Z,2.10
2022-10-16T20:34:25.342Z,2.10
2022-10-16T20:37:29.747Z,2.30
2022-10-16T20:40:35.282Z,1.80
2022-10-16T20:43:44.534Z,1.98
2022-10-16T20:46:47.094Z,2.33
2022-10-16T20:49:49.777Z,2.28
2022-10-16T20:52:53.886Z,2.60
2022-10-16T20:55:56.485Z,2.07
2022-10-16T20:58:59.369Z,1.88
2022-10-16T21:02:02.051Z,2.00
2022-10-16T21:05:05.355Z,2.30
2022-10-16T21:08:09.396Z,2.20
2022-10-16T21:11:13.579Z,2.20
2022-10-16T21:14:16.355Z,2.50
2022-10-16T21:17:19.616Z,2.45
2022-10-16T21:20:22.335Z,2.50
2022-10-16T21:23:26.464Z,2.90
2022-10-16T21:26:30.282Z,2.73
2022-10-16T21:29:33.332Z,2.70
2022-10-16T21:32:36.753Z,3.60
2022-10-16T21:35:39.467Z,3.78
2022-10-16T21:38:43.655Z,4.05
2022-10-16T21:41:47.915Z,3.90
2022-10-16T21:44:50.629Z,3.92
2022-10-16T21:47:53.207Z,4.05
2022-10-16T21:50:55.931Z,3.42
2022-10-16T21:54:00.177Z,4.28
2022-10-16T22:00:11.395Z,3.90
2022-10-16T22:03:14.002Z,4.87
2022-10-16T22:06:18.656Z,5.30
2022-10-16T22:09:22.867Z,5.20
2022-10-16T22:12:25.620Z,5.05
2022-10-16T22:15:28.430Z,4.22
2022-10-16T22:18:31.823Z,3.80
2022-10-16T22:21:35.760Z,2.90
2022-10-16T22:24:42.681Z,3.30
2022-10-16T22:27:45.297Z,3.00
2022-10-16T22:30:48.078Z,3.17
2022-10-16T22:33:55.370Z,2.80
2022-10-16T22:36:58.041Z,2.70
2022-10-16T22:40:02.094Z,3.30
2022-10-16T22:43:07.012Z,3.80
2022-10-16T22:46:11.918Z,3.90
2022-10-16T22:49:16.606Z,4.53
2022-10-16T22:52:19.337Z,3.90
2022-10-16T22:55:23.899Z,3.60
2022-10-16T22:58:26.667Z,3.67
2022-10-16T23:01:33.247Z,3.60
2022-10-16T23:04:35.881Z,4.17
2022-10-16T23:07:39.142Z,4.33
2022-10-16T23:10:45.003Z,4.60
2022-10-16T23:13:47.909Z,4.20
2022-10-16T23:16:51.123Z,4.10
2022-10-16T23:19:53.865Z,3.93
2022-10-16T23:22:56.616Z,3.50
2022-10-16T23:26:00.682Z,4.18
2022-10-16T23:29:03.454Z,3.85
2022-10-16T23:32:06.370Z,3.30
2022-10-16T23:35:09.746Z,3.67
2022-10-16T23:38:12.420Z,3.17
2022-10-16T23:41:17.712Z,3.53
2022-10-16T23:44:20.255Z,4.00
2022-10-16T23:47:23.006Z,3.15
2022-10-16T23:50:25.629Z,2.80
2022-10-16T23:53:28.367Z,3.37
2022-10-16T23:56:32.571Z,3.00
2022-10-16T23:59:35.182Z,2.95
